createdAt,value
2019-04-10T00:02:16.158Z,70.40
2019-04-10T00:04:47.809Z,70.40
2019-04-10T00:07:19.823Z,71.30
2019-04-10T00:09:52.998Z,70.30
2019-04-10T00:12:25.442Z,70.40
2019-04-10T00:14:56.882Z,70.20
2019-04-10T00:17:29.157Z,70.00
2019-04-10T00:20:00.591Z,70.30
2019-04-10T00:22:32.486Z,70.20
2019-04-10T00:25:02.712Z,70.10
2019-04-10T00:27:34.672Z,69.60
2019-04-10T00:30:06.955Z,69.70
2019-04-10T00:32:38.767Z,69.80
2019-04-10T00:35:33.468Z,69.90
2019-04-10T00:38:05.202Z,70.20
2019-04-10T00:40:37.999Z,69.70
2019-04-10T00:43:09.310Z,69.50
2019-04-10T00:45:41.863Z,69.50
2019-04-10T00:48:13.214Z,69.30
2019-04-10T00:50:44.650Z,69.50
2019-04-10T00:53:16.996Z,69.50
2019-04-10T00:55:48.464Z,69.20
2019-04-10T00:58:20.373Z,69.30
2019-04-10T01:00:52.067Z,69.50
2019-04-10T01:03:40.102Z,69.30
2019-04-10T01:06:13.670Z,69.10
2019-04-10T01:08:45.176Z,69.30
2019-04-10T01:11:17.111Z,69.20
2019-04-10T01:13:50.329Z,69.20
2019-04-10T01:16:23.091Z,69.30
2019-04-10T01:18:55.182Z,69.00
2019-04-10T01:21:27.194Z,68.40
2019-04-10T01:23:57.426Z,68.80
2019-04-10T01:26:29.662Z,69.10
2019-04-10T01:29:01.148Z,68.90
2019-04-10T01:31:33.619Z,68.90
2019-04-10T01:34:05.426Z,68.80
2019-04-10T01:36:37.493Z,68.80
2019-04-10T01:39:13.902Z,68.90
2019-04-10T01:41:45.164Z,69.00
2019-04-10T01:44:17.054Z,68.50
2019-04-10T01:46:48.787Z,68.50
2019-04-10T01:49:21.718Z,68.70
2019-04-10T01:51:53.251Z,68.80
2019-04-10T01:54:25.017Z,68.40
2019-04-10T01:56:56.314Z,68.70
2019-04-10T01:59:29.918Z,68.80
2019-04-10T02:02:14.827Z,68.80
2019-04-10T02:04:46.347Z,69.70
2019-04-10T02:07:18.047Z,68.70
2019-04-10T02:09:49.805Z,69.00
2019-04-10T02:12:21.382Z,69.20
2019-04-10T02:14:53.043Z,68.90
2019-04-10T02:17:24.444Z,68.60
2019-04-10T02:19:56.724Z,68.50
2019-04-10T02:22:28.733Z,68.70
2019-04-10T02:25:00.171Z,68.70
2019-04-10T02:27:32.165Z,68.80
2019-04-10T02:30:07.723Z,68.80
2019-04-10T02:32:41.123Z,69.10
2019-04-10T02:35:16.965Z,69.50
2019-04-10T02:37:49.359Z,69.50
2019-04-10T02:40:19.345Z,69.20
2019-04-10T02:42:51.370Z,69.20
2019-04-10T02:45:24.181Z,69.00
2019-04-10T02:47:55.705Z,68.80
2019-04-10T02:50:27.313Z,69.60
2019-04-10T02:52:59.247Z,68.80
2019-04-10T02:55:31.382Z,68.90
2019-04-10T02:58:03.382Z,68.80
2019-04-10T03:00:33.908Z,68.80
2019-04-10T03:03:06.537Z,68.80
2019-04-10T03:05:38.405Z,68.80
2019-04-10T03:08:11.254Z,68.80
2019-04-10T03:10:49.416Z,68.80
2019-04-10T03:13:17.910Z,69.20
2019-04-10T03:15:49.835Z,68.90
2019-04-10T03:18:21.625Z,68.80
2019-04-10T03:20:52.959Z,68.70
2019-04-10T03:23:25.167Z,68.70
2019-04-10T03:25:57.311Z,68.70
2019-04-10T03:28:29.580Z,68.70
2019-04-10T03:31:03.452Z,68.50
2019-04-10T03:33:56.120Z,68.60
2019-04-10T03:36:36.387Z,68.60
2019-04-10T03:39:10.622Z,69.40
2019-04-10T03:41:42.494Z,69.40
2019-04-10T03:44:14.530Z,69.10
2019-04-10T03:46:46.931Z,68.90
2019-04-10T03:49:18.544Z,68.70
2019-04-10T03:51:49.769Z,69.20
2019-04-10T03:54:21.006Z,68.80
2019-04-10T03:56:52.637Z,68.70
2019-04-10T03:59:24.369Z,68.70
2019-04-10T04:01:55.500Z,68.70
2019-04-10T04:04:26.748Z,68.50
2019-04-10T04:06:58.057Z,68.40
2019-04-10T04:09:29.719Z,68.40
2019-04-10T04:12:02.219Z,68.20
2019-04-10T04:14:34.451Z,68.20
2019-04-10T04:17:06.132Z,68.10
2019-04-10T04:19:37.976Z,68.00
2019-04-10T04:22:08.343Z,67.90
2019-04-10T04:24:40.023Z,68.00
2019-04-10T04:27:13.236Z,67.80
2019-04-10T04:29:45.430Z,67.80
2019-04-10T04:32:17.622Z,67.70
2019-04-10T04:34:49.762Z,67.60
2019-04-10T04:37:23.367Z,67.60
2019-04-10T04:39:56.253Z,67.40
2019-04-10T04:42:28.692Z,67.50
2019-04-10T04:45:00.785Z,67.50
2019-04-10T04:47:33.473Z,67.40
2019-04-10T04:50:07.713Z,67.30
2019-04-10T04:52:39.162Z,67.40
2019-04-10T04:55:12.227Z,67.20
2019-04-10T04:57:44.966Z,67.20
2019-04-10T05:00:17.396Z,67.10
2019-04-10T05:02:49.039Z,67.20
2019-04-10T05:05:23.017Z,67.40
2019-04-10T05:07:59.647Z,67.90
2019-04-10T05:10:27.586Z,68.10
2019-04-10T05:12:59.951Z,67.50
2019-04-10T05:15:31.299Z,67.40
2019-04-10T05:18:02.546Z,67.30
2019-04-10T05:20:46.012Z,67.10
2019-04-10T05:23:26.641Z,66.80
2019-04-10T05:25:58.991Z,67.50
2019-04-10T05:28:32.753Z,66.50
2019-04-10T05:31:04.287Z,66.50
2019-04-10T05:33:36.597Z,66.00
2019-04-10T05:36:09.580Z,66.10
2019-04-10T05:38:40.243Z,65.70
2019-04-10T05:41:12.083Z,65.70
2019-04-10T05:43:43.350Z,65.20
2019-04-10T05:46:16.520Z,65.20
2019-04-10T05:48:48.984Z,65.00
2019-04-10T05:51:21.267Z,65.30
2019-04-10T05:53:55.359Z,65.10
2019-04-10T05:56:27.866Z,64.50
2019-04-10T05:58:59.766Z,64.60
2019-04-10T06:01:35.832Z,64.30
2019-04-10T06:04:03.571Z,64.30
2019-04-10T06:06:35.228Z,64.50
2019-04-10T06:09:09.206Z,64.00
2019-04-10T06:11:42.962Z,64.00
2019-04-10T06:14:14.270Z,63.80
2019-04-10T06:16:46.834Z,64.20
2019-04-10T06:19:18.530Z,63.80
2019-04-10T06:21:48.894Z,63.80
2019-04-10T06:24:20.406Z,63.70
2019-04-10T06:26:52.043Z,63.60
2019-04-10T06:29:24.806Z,63.80
2019-04-10T06:31:58.246Z,63.50
2019-04-10T06:34:30.139Z,63.30
2019-04-10T06:37:01.911Z,63.40
2019-04-10T06:40:06.071Z,63.10
2019-04-10T06:42:26.947Z,63.90
2019-04-10T06:44:58.978Z,63.10
2019-04-10T06:47:30.716Z,62.70
2019-04-10T06:50:04.352Z,62.70
2019-04-10T06:52:36.226Z,62.50
2019-04-10T06:55:06.547Z,62.80
2019-04-10T06:57:46.911Z,62.60
2019-04-10T07:00:16.685Z,62.50
2019-04-10T07:02:47.943Z,62.20
2019-04-10T07:05:20.153Z,62.40
2019-04-10T07:07:56.667Z,63.10
2019-04-10T07:10:30.768Z,62.50
2019-04-10T07:12:59.559Z,62.20
2019-04-10T07:15:30.909Z,62.40
2019-04-10T07:18:03.017Z,62.40
2019-04-10T07:20:34.416Z,62.40
2019-04-10T07:23:05.693Z,62.20
2019-04-10T07:25:37.493Z,62.50
2019-04-10T07:28:10.812Z,62.00
2019-04-10T07:30:42.026Z,62.00
2019-04-10T07:33:16.543Z,62.00
2019-04-10T07:35:46.834Z,62.10
2019-04-10T07:38:21.038Z,62.20
2019-04-10T07:40:51.357Z,62.40
2019-04-10T07:43:26.160Z,62.10
2019-04-10T07:45:56.841Z,62.80
2019-04-10T07:48:29.429Z,61.80
2019-04-10T07:51:01.401Z,61.80
2019-04-10T07:53:31.571Z,61.80
2019-04-10T07:56:07.590Z,61.80
2019-04-10T07:58:37.696Z,61.70
2019-04-10T08:01:11.803Z,62.20
2019-04-10T08:03:43.844Z,62.00
2019-04-10T08:06:15.450Z,61.50
2019-04-10T08:08:46.920Z,61.30
2019-04-10T08:11:19.675Z,61.50
2019-04-10T08:13:51.584Z,62.00
2019-04-10T08:16:23.370Z,61.80
2019-04-10T08:18:54.377Z,61.30
2019-04-10T08:21:27.363Z,61.50
2019-04-10T08:23:58.970Z,61.50
2019-04-10T08:26:30.479Z,61.40
2019-04-10T08:29:01.942Z,61.50
2019-04-10T08:31:33.608Z,61.70
2019-04-10T08:34:06.571Z,61.40
2019-04-10T08:36:39.385Z,61.60
2019-04-10T08:39:10.984Z,61.80
2019-04-10T08:41:43.705Z,61.90
2019-04-10T08:44:15.625Z,61.70
2019-04-10T08:46:48.298Z,61.70
2019-04-10T08:49:21.274Z,61.80
2019-04-10T08:51:52.996Z,62.50
2019-04-10T08:54:25.906Z,63.10
2019-04-10T08:56:57.191Z,62.20
2019-04-10T08:59:29.902Z,62.40
2019-04-10T09:02:01.962Z,62.40
2019-04-10T09:04:33.713Z,62.50
2019-04-10T09:07:06.850Z,62.40
2019-04-10T09:09:39.456Z,62.40
2019-04-10T09:12:10.816Z,62.60
2019-04-10T09:14:42.002Z,62.90
2019-04-10T09:17:13.334Z,62.70
2019-04-10T09:19:44.634Z,62.90
2019-04-10T09:22:16.218Z,62.90
2019-04-10T09:24:46.775Z,63.10
2019-04-10T09:27:17.839Z,63.40
2019-04-10T09:29:49.013Z,63.20
2019-04-10T09:32:20.229Z,63.20
2019-04-10T09:34:52.078Z,62.90
2019-04-10T09:37:24.149Z,62.90
2019-04-10T09:39:56.567Z,64.50
2019-04-10T09:42:27.876Z,64.00
2019-04-10T09:45:00.430Z,63.90
2019-04-10T09:47:32.524Z,63.90
2019-04-10T09:50:05.733Z,64.20
2019-04-10T09:52:37.615Z,64.20
2019-04-10T09:55:08.414Z,64.30
2019-04-10T09:57:40.894Z,64.40
2019-04-10T10:00:14.166Z,64.20
2019-04-10T10:02:48.562Z,63.60
2019-04-10T10:05:22.276Z,64.30
2019-04-10T10:07:56.097Z,64.20
2019-04-10T10:10:27.184Z,64.50
2019-04-10T10:12:59.658Z,64.30
2019-04-10T10:15:31.422Z,64.30
2019-04-10T10:18:03.377Z,63.60
2019-04-10T10:20:35.638Z,63.60
2019-04-10T10:23:07.559Z,63.50
2019-04-10T10:25:39.369Z,63.60
2019-04-10T10:28:11.769Z,63.20
2019-04-10T10:30:43.948Z,63.40
2019-04-10T10:33:15.385Z,63.10
2019-04-10T10:35:49.585Z,64.50
2019-04-10T10:38:23.088Z,63.60
2019-04-10T10:40:55.693Z,63.40
2019-04-10T10:43:27.289Z,63.00
2019-04-10T10:45:59.008Z,63.20
2019-04-10T10:48:31.581Z,63.10
2019-04-10T10:51:02.872Z,63.40
2019-04-10T10:53:34.549Z,63.10
2019-04-10T10:56:06.397Z,63.20
2019-04-10T10:58:37.796Z,63.50
2019-04-10T11:01:09.177Z,63.60
2019-04-10T11:03:41.018Z,63.50
2019-04-10T11:06:11.353Z,63.20
2019-04-10T11:08:43.805Z,64.20
2019-04-10T11:11:15.602Z,63.40
2019-04-10T11:13:48.500Z,63.80
2019-04-10T11:16:20.668Z,64.40
2019-04-10T11:18:53.069Z,64.10
2019-04-10T11:21:24.776Z,63.80
2019-04-10T11:23:56.082Z,63.80
2019-04-10T11:26:30.258Z,63.40
2019-04-10T11:29:03.624Z,63.60
2019-04-10T11:31:35.758Z,63.70
2019-04-10T11:34:09.963Z,64.30
2019-04-10T11:36:42.516Z,63.40
2019-04-10T11:39:22.669Z,63.50
2019-04-10T11:41:50.302Z,63.60
2019-04-10T11:44:22.067Z,63.50
2019-04-10T11:46:56.778Z,63.50
2019-04-10T11:49:29.476Z,63.50
2019-04-10T11:52:03.393Z,63.60
2019-04-10T11:54:38.348Z,63.60
2019-04-10T11:57:07.813Z,63.70
2019-04-10T11:59:41.041Z,63.70
2019-04-10T12:02:14.279Z,63.60
2019-04-10T12:04:53.882Z,63.80
2019-04-10T12:07:53.118Z,63.60
2019-04-10T12:12:28.021Z,63.80
2019-04-10T12:14:59.725Z,63.60
2019-04-10T12:17:32.177Z,63.70
2019-04-10T12:20:04.718Z,63.50
2019-04-10T12:22:36.192Z,63.50
2019-04-10T12:25:10.253Z,63.70
2019-04-10T12:27:41.655Z,63.80
2019-04-10T12:30:33.439Z,63.80
2019-04-10T12:33:05.392Z,63.70
2019-04-10T12:35:38.138Z,63.50
2019-04-10T12:38:10.735Z,63.00
2019-04-10T12:40:42.741Z,63.10
2019-04-10T12:43:13.997Z,62.90
2019-04-10T12:45:46.445Z,62.80
2019-04-10T12:48:18.763Z,62.90
2019-04-10T12:50:50.197Z,63.10
2019-04-10T12:53:21.838Z,62.80
2019-04-10T12:55:53.554Z,62.70
2019-04-10T12:58:25.263Z,62.50
2019-04-10T13:00:58.302Z,62.80
2019-04-10T13:03:31.311Z,62.50
2019-04-10T13:06:03.003Z,62.20
2019-04-10T13:08:52.536Z,61.90
2019-04-10T13:11:10.021Z,62.20
2019-04-10T13:13:42.571Z,62.00
2019-04-10T13:16:14.211Z,62.00
2019-04-10T13:18:46.862Z,62.20
2019-04-10T13:21:20.141Z,62.00
2019-04-10T13:23:53.070Z,61.70
2019-04-10T13:26:24.666Z,62.10
2019-04-10T13:28:56.726Z,61.60
2019-04-10T13:31:27.979Z,61.60
2019-04-10T13:34:00.522Z,61.90
2019-04-10T13:36:31.987Z,62.10
2019-04-10T13:39:04.897Z,61.70
2019-04-10T13:41:36.755Z,61.30
2019-04-10T13:44:07.096Z,61.30
2019-04-10T13:46:39.056Z,60.70
2019-04-10T13:49:11.322Z,60.40
2019-04-10T13:51:44.324Z,60.40
2019-04-10T13:54:16.528Z,61.30
2019-04-10T13:56:49.548Z,60.90
2019-04-10T13:59:20.853Z,60.40
2019-04-10T14:01:52.767Z,60.30
2019-04-10T14:04:25.066Z,60.40
2019-04-10T14:06:57.776Z,60.30
2019-04-10T14:09:38.806Z,60.00
2019-04-10T14:12:02.408Z,59.90
2019-04-10T14:14:33.711Z,60.00
2019-04-10T14:17:06.845Z,60.10
2019-04-10T14:19:39.460Z,60.60
2019-04-10T14:22:11.471Z,60.40
2019-04-10T14:24:45.290Z,60.40
2019-04-10T14:27:18.608Z,60.90
2019-04-10T14:29:51.051Z,61.00
2019-04-10T14:32:36.173Z,61.00
2019-04-10T14:35:09.867Z,61.10
2019-04-10T14:37:41.390Z,61.10
2019-04-10T14:40:15.816Z,61.10
2019-04-10T14:42:47.316Z,61.00
2019-04-10T14:45:19.378Z,62.30
2019-04-10T14:47:51.769Z,61.80
2019-04-10T14:50:23.977Z,61.50
2019-04-10T14:52:57.143Z,61.60
2019-04-10T14:55:29.281Z,61.40
2019-04-10T14:58:01.344Z,61.80
2019-04-10T15:00:39.202Z,61.70
2019-04-10T15:03:11.930Z,61.80
2019-04-10T15:05:50.236Z,61.70
2019-04-10T15:08:17.585Z,61.80
2019-04-10T15:10:50.533Z,61.70
2019-04-10T15:13:23.149Z,61.90
2019-04-10T15:15:55.381Z,61.60
2019-04-10T15:18:26.671Z,61.30
2019-04-10T15:20:58.607Z,61.40
2019-04-10T15:23:29.902Z,61.50
2019-04-10T15:26:01.822Z,61.70
2019-04-10T15:28:34.131Z,61.50
2019-04-10T15:31:06.704Z,61.20
2019-04-10T15:33:39.324Z,61.30
2019-04-10T15:36:11.590Z,61.50
2019-04-10T15:38:44.347Z,61.50
2019-04-10T15:41:16.803Z,61.30
2019-04-10T15:43:48.288Z,61.00
2019-04-10T15:46:19.835Z,61.30
2019-04-10T15:48:52.875Z,61.30
2019-04-10T15:51:24.762Z,61.40
2019-04-10T15:53:55.207Z,61.30
2019-04-10T15:56:26.258Z,61.40
2019-04-10T15:58:57.982Z,61.40
2019-04-10T16:01:28.543Z,61.50
2019-04-10T16:04:00.921Z,61.70
2019-04-10T16:06:33.437Z,61.80
2019-04-10T16:09:07.198Z,61.70
2019-04-10T16:12:00.799Z,61.80
2019-04-10T16:14:33.282Z,61.80
2019-04-10T16:17:24.001Z,61.90
2019-04-10T16:20:05.051Z,62.10
2019-04-10T16:22:42.927Z,62.10
2019-04-10T16:25:22.998Z,62.10
2019-04-10T16:27:54.278Z,62.30
2019-04-10T16:30:28.434Z,63.40
2019-04-10T16:33:00.808Z,62.50
2019-04-10T16:35:35.441Z,62.40
2019-04-10T16:38:07.064Z,62.60
2019-04-10T16:40:38.403Z,62.40
2019-04-10T16:43:10.246Z,62.80
2019-04-10T16:45:42.494Z,62.80
2019-04-10T16:48:14.758Z,62.60
2019-04-10T16:50:46.375Z,62.60
2019-04-10T16:53:18.123Z,62.70
2019-04-10T16:55:49.189Z,62.90
2019-04-10T16:58:20.422Z,63.00
2019-04-10T17:00:53.777Z,63.10
2019-04-10T17:03:25.530Z,63.00
2019-04-10T17:05:57.716Z,63.40
2019-04-10T17:08:30.044Z,63.40
2019-04-10T17:11:02.846Z,63.40
2019-04-10T17:13:34.944Z,63.50
2019-04-10T17:16:07.346Z,63.60
2019-04-10T17:18:39.256Z,63.80
2019-04-10T17:21:11.118Z,63.70
2019-04-10T17:23:41.341Z,63.90
2019-04-10T17:26:14.853Z,64.00
2019-04-10T17:28:46.652Z,64.00
2019-04-10T17:31:18.265Z,64.20
2019-04-10T17:33:50.664Z,64.30
2019-04-10T17:36:23.268Z,64.40
2019-04-10T17:38:55.255Z,64.70
2019-04-10T17:41:27.978Z,64.60
2019-04-10T17:44:01.118Z,64.70
2019-04-10T17:46:33.472Z,65.00
2019-04-10T17:49:05.355Z,64.90
2019-04-10T17:51:36.422Z,64.70
2019-04-10T17:54:07.728Z,65.60
2019-04-10T17:56:40.153Z,65.10
2019-04-10T17:59:11.464Z,65.00
2019-04-10T18:01:43.253Z,65.10
2019-04-10T18:04:15.951Z,65.10
2019-04-10T18:06:48.442Z,65.00
2019-04-10T18:09:21.386Z,65.00
2019-04-10T18:11:54.039Z,65.20
2019-04-10T18:14:27.051Z,65.20
2019-04-10T18:17:00.198Z,65.30
2019-04-10T18:19:32.369Z,65.60
2019-04-10T18:22:05.396Z,65.40
2019-04-10T18:24:38.887Z,65.60
2019-04-10T18:27:14.276Z,65.60
2019-04-10T18:29:46.285Z,65.50
2019-04-10T18:32:17.946Z,65.50
2019-04-10T18:34:49.912Z,65.40
2019-04-10T18:37:24.851Z,65.30
2019-04-10T18:39:54.995Z,65.40
2019-04-10T18:42:26.784Z,65.40
2019-04-10T18:44:57.493Z,65.40
2019-04-10T18:47:32.011Z,65.20
2019-04-10T18:50:04.520Z,66.30
2019-04-10T18:52:37.287Z,65.20
2019-04-10T18:55:09.993Z,65.30
2019-04-10T18:57:41.652Z,65.20
2019-04-10T19:00:46.263Z,65.40
2019-04-10T19:03:30.254Z,65.20
2019-04-10T19:06:04.583Z,65.70
2019-04-10T19:08:37.644Z,66.00
2019-04-10T19:11:20.009Z,65.30
2019-04-10T19:13:42.455Z,65.30
2019-04-10T19:16:15.216Z,65.20
2019-04-10T19:18:47.896Z,65.20
2019-04-10T19:21:20.043Z,65.40
2019-04-10T19:23:51.666Z,65.60
2019-04-10T19:26:23.446Z,65.60
2019-04-10T19:28:55.089Z,65.40
2019-04-10T19:31:27.659Z,65.30
2019-04-10T19:33:59.387Z,65.30
2019-04-10T19:36:32.823Z,66.10
2019-04-10T19:39:05.565Z,65.40
2019-04-10T19:41:39.835Z,65.50
2019-04-10T19:44:12.757Z,65.40
2019-04-10T19:46:45.930Z,65.40
2019-04-10T19:49:18.317Z,65.50
2019-04-10T19:51:50.783Z,65.30
2019-04-10T19:54:22.689Z,65.30
2019-04-10T19:56:55.048Z,65.40
2019-04-10T19:59:27.122Z,65.40
2019-04-10T20:02:00.294Z,65.40
2019-04-10T20:04:32.475Z,65.80
2019-04-10T20:07:04.855Z,65.30
2019-04-10T20:09:36.819Z,65.40
2019-04-10T20:12:10.572Z,65.40
2019-04-10T20:14:42.063Z,65.40
2019-04-10T20:17:13.544Z,65.40
2019-04-10T20:19:46.753Z,65.10
2019-04-10T20:22:18.835Z,65.20
2019-04-10T20:24:51.891Z,65.30
2019-04-10T20:27:36.156Z,65.20
2019-04-10T20:30:08.289Z,65.90
2019-04-10T20:32:39.952Z,65.10
2019-04-10T20:35:12.243Z,65.10
2019-04-10T20:37:44.932Z,65.10
2019-04-10T20:40:19.123Z,65.20
2019-04-10T20:42:51.388Z,65.10
2019-04-10T20:45:23.484Z,65.00
2019-04-10T20:47:54.774Z,65.00
2019-04-10T20:50:26.363Z,65.10
2019-04-10T20:52:58.255Z,65.20
2019-04-10T20:55:30.007Z,65.20
2019-04-10T20:58:03.447Z,65.00
2019-04-10T21:00:41.025Z,65.30
2019-04-10T21:03:13.547Z,64.90
2019-04-10T21:05:46.441Z,65.20
2019-04-10T21:08:18.151Z,64.90
2019-04-10T21:10:49.391Z,65.10
2019-04-10T21:13:22.068Z,64.90
2019-04-10T21:16:05.530Z,64.90
2019-04-10T21:18:37.736Z,65.00
2019-04-10T21:21:10.195Z,65.20
2019-04-10T21:23:42.155Z,65.00
2019-04-10T21:26:12.794Z,64.90
2019-04-10T21:28:45.738Z,65.10
2019-04-10T21:31:36.350Z,65.20
2019-04-10T21:34:17.621Z,65.00
2019-04-10T21:36:49.430Z,65.00
2019-04-10T21:39:21.194Z,64.90
2019-04-10T21:41:53.514Z,64.90
2019-04-10T21:44:24.797Z,65.00
2019-04-10T21:46:57.211Z,64.90
2019-04-10T21:49:28.617Z,65.00
2019-04-10T21:52:11.585Z,64.60
2019-04-10T21:54:49.724Z,63.80
2019-04-10T21:57:18.164Z,64.60
2019-04-10T21:59:49.686Z,64.60
2019-04-10T22:02:21.619Z,64.50
2019-04-10T22:04:52.883Z,64.30
2019-04-10T22:07:43.146Z,64.30
2019-04-10T22:10:25.993Z,64.20
2019-04-10T22:12:57.671Z,64.30
2019-04-10T22:15:39.736Z,64.40
2019-04-10T22:18:12.842Z,64.00
2019-04-10T22:20:44.673Z,64.00
2019-04-10T22:23:16.431Z,64.20
2019-04-10T22:25:48.626Z,64.10
2019-04-10T22:28:21.101Z,64.10
2019-04-10T22:30:54.702Z,64.20
2019-04-10T22:33:27.815Z,63.80
2019-04-10T22:36:00.208Z,63.90
2019-04-10T22:38:31.915Z,64.20
2019-04-10T22:41:12.318Z,64.00
2019-04-10T22:43:36.890Z,63.70
2019-04-10T22:46:08.915Z,63.70
2019-04-10T22:48:41.671Z,63.80
2019-04-10T22:51:15.006Z,63.90
2019-04-10T22:53:47.879Z,64.20
2019-04-10T22:56:19.321Z,63.80
2019-04-10T22:58:51.166Z,63.80
2019-04-10T23:01:22.891Z,63.90
2019-04-10T23:03:55.133Z,64.10
2019-04-10T23:06:26.458Z,63.80
2019-04-10T23:08:58.107Z,63.50
2019-04-10T23:11:37.362Z,63.40
2019-04-10T23:14:01.177Z,63.50
2019-04-10T23:16:33.151Z,63.80
2019-04-10T23:19:05.721Z,63.80
2019-04-10T23:21:38.732Z,64.10
2019-04-10T23:24:10.022Z,63.40
2019-04-10T23:26:41.629Z,63.80
2019-04-10T23:29:13.941Z,63.50
2019-04-10T23:31:45.832Z,63.40
2019-04-10T23:34:19.192Z,63.60
2019-04-10T23:36:50.802Z,63.40
2019-04-10T23:39:22.068Z,63.20
2019-04-10T23:41:53.434Z,63.60
2019-04-10T23:44:25.116Z,63.80
2019-04-10T23:46:57.787Z,63.80
2019-04-10T23:49:29.921Z,63.40
2019-04-10T23:52:01.361Z,63.10
2019-04-10T23:54:44.028Z,62.90
2019-04-10T23:57:15.215Z,63.90
2019-04-10T23:59:46.792Z,63.50
